sensor_id;sensor_type;location;lat;lon;timestamp;temperature;humidity
16321;DHT22;8269;50.990;4.494;2023-12-20T11:28:15;7.50;99.90
16321;DHT22;8269;50.990;4.494;2023-12-20T11:33:15;7.50;99.90
16321;DHT22;8269;50.990;4.494;2023-12-20T11:38:09;7.50;99.90
16321;DHT22;8269;50.990;4.494;2023-12-20T11:40:36;7.60;99.90
16321;DHT22;8269;50.990;4.494;2023-12-20T11:43:03;7.60;99.90
16321;DHT22;8269;50.990;4.494;2023-12-20T11:45:29;7.60;99.90
16321;DHT22;8269;50.990;4.494;2023-12-20T11:47:56;7.70;99.90
16321;DHT22;8269;50.990;4.494;2023-12-20T11:50:24;7.80;99.90
16321;DHT22;8269;50.990;4.494;2023-12-20T12:44:19;8.10;99.90
16321;DHT22;8269;50.990;4.494;2023-12-20T12:46:46;8.00;99.90
16321;DHT22;8269;50.990;4.494;2023-12-20T12:49:12;8.10;99.90
16321;DHT22;8269;50.990;4.494;2023-12-20T12:51:38;8.00;99.90
16321;DHT22;8269;50.990;4.494;2023-12-20T13:15:59;8.10;99.90
16321;DHT22;8269;50.990;4.494;2023-12-20T13:18:26;8.00;99.90
16321;DHT22;8269;50.990;4.494;2023-12-20T13:20:51;8.20;99.90
16321;DHT22;8269;50.990;4.494;2023-12-20T13:23:17;8.20;99.90
16321;DHT22;8269;50.990;4.494;2023-12-20T13:25:46;8.20;99.90
16321;DHT22;8269;50.990;4.494;2023-12-20T13:28:12;8.10;99.90
16321;DHT22;8269;50.990;4.494;2023-12-20T13:38:00;8.10;99.90
16321;DHT22;8269;50.990;4.494;2023-12-20T13:40:26;8.10;99.90
16321;DHT22;8269;50.990;4.494;2023-12-20T13:42:52;8.10;99.90
16321;DHT22;8269;50.990;4.494;2023-12-20T13:57:33;8.40;99.90
16321;DHT22;8269;50.990;4.494;2023-12-20T14:00:00;8.30;99.90
16321;DHT22;8269;50.990;4.494;2023-12-20T14:02:25;8.20;99.90
16321;DHT22;8269;50.990;4.494;2023-12-20T14:04:52;8.30;99.90
16321;DHT22;8269;50.990;4.494;2023-12-20T14:07:18;8.30;99.90
16321;DHT22;8269;50.990;4.494;2023-12-20T14:09:43;8.20;99.90
16321;DHT22;8269;50.990;4.494;2023-12-20T15:37:47;8.50;99.90
16321;DHT22;8269;50.990;4.494;2023-12-20T15:52:28;8.50;99.90
16321;DHT22;8269;50.990;4.494;2023-12-20T15:54:54;8.50;99.90
16321;DHT22;8269;50.990;4.494;2023-12-20T15:57:20;8.50;99.90
16321;DHT22;8269;50.990;4.494;2023-12-20T15:59:45;8.50;99.90
16321;DHT22;8269;50.990;4.494;2023-12-20T16:02:11;8.40;99.90
16321;DHT22;8269;50.990;4.494;2023-12-20T16:04:37;8.40;99.90
16321;DHT22;8269;50.990;4.494;2023-12-20T16:07:03;8.40;99.90
16321;DHT22;8269;50.990;4.494;2023-12-20T16:09:28;8.30;99.90
16321;DHT22;8269;50.990;4.494;2023-12-20T16:11:54;8.30;99.90
16321;DHT22;8269;50.990;4.494;2023-12-20T16:14:20;8.30;99.90
16321;DHT22;8269;50.990;4.494;2023-12-20T16:16:46;8.30;99.90
16321;DHT22;8269;50.990;4.494;2023-12-20T16:19:12;8.30;99.90
16321;DHT22;8269;50.990;4.494;2023-12-20T16:21:38;8.30;99.90
16321;DHT22;8269;50.990;4.494;2023-12-20T16:24:04;8.30;99.90
16321;DHT22;8269;50.990;4.494;2023-12-20T16:26:30;8.30;99.90
16321;DHT22;8269;50.990;4.494;2023-12-20T16:28:56;8.30;99.90
16321;DHT22;8269;50.990;4.494;2023-12-20T16:31:22;8.30;99.90
16321;DHT22;8269;50.990;4.494;2023-12-20T16:33:47;8.30;99.90
16321;DHT22;8269;50.990;4.494;2023-12-20T16:36:13;8.40;99.90
16321;DHT22;8269;50.990;4.494;2023-12-20T16:38:39;8.40;99.90
16321;DHT22;8269;50.990;4.494;2023-12-20T16:41:04;8.40;99.90
16321;DHT22;8269;50.990;4.494;2023-12-20T16:43:31;8.40;99.90
16321;DHT22;8269;50.990;4.494;2023-12-20T16:45:56;8.40;99.90
16321;DHT22;8269;50.990;4.494;2023-12-20T16:48:22;8.30;99.90
16321;DHT22;8269;50.990;4.494;2023-12-20T16:50:48;8.30;99.90
16321;DHT22;8269;50.990;4.494;2023-12-20T16:53:14;8.30;99.90
16321;DHT22;8269;50.990;4.494;2023-12-20T16:55:41;8.20;99.90
16321;DHT22;8269;50.990;4.494;2023-12-20T16:58:10;8.20;99.90
16321;DHT22;8269;50.990;4.494;2023-12-20T17:00:36;8.30;99.90
16321;DHT22;8269;50.990;4.494;2023-12-20T17:03:01;8.30;99.90
16321;DHT22;8269;50.990;4.494;2023-12-20T17:05:27;8.30;99.90
16321;DHT22;8269;50.990;4.494;2023-12-20T17:07:53;8.30;99.90
16321;DHT22;8269;50.990;4.494;2023-12-20T17:10:20;8.30;99.90
16321;DHT22;8269;50.990;4.494;2023-12-20T17:20:06;8.40;99.90
16321;DHT22;8269;50.990;4.494;2023-12-20T17:22:32;8.40;99.90
16321;DHT22;8269;50.990;4.494;2023-12-20T17:24:58;8.40;99.90
16321;DHT22;8269;50.990;4.494;2023-12-20T17:27:24;8.40;99.90
16321;DHT22;8269;50.990;4.494;2023-12-20T17:29:49;8.40;99.90
16321;DHT22;8269;50.990;4.494;2023-12-20T17:32:15;8.40;99.90
16321;DHT22;8269;50.990;4.494;2023-12-20T17:34:41;8.40;99.90
16321;DHT22;8269;50.990;4.494;2023-12-20T17:37:07;8.40;99.90
16321;DHT22;8269;50.990;4.494;2023-12-20T17:39:33;8.40;99.90
16321;DHT22;8269;50.990;4.494;2023-12-20T17:41:58;8.40;99.90
16321;DHT22;8269;50.990;4.494;2023-12-20T17:44:24;8.40;99.90
16321;DHT22;8269;50.990;4.494;2023-12-20T17:46:50;8.40;99.90
16321;DHT22;8269;50.990;4.494;2023-12-20T17:49:17;8.40;99.90
16321;DHT22;8269;50.990;4.494;2023-12-20T17:51:46;8.40;99.90
16321;DHT22;8269;50.990;4.494;2023-12-20T17:54:12;8.40;99.90
16321;DHT22;8269;50.990;4.494;2023-12-20T17:56:38;8.40;99.90
16321;DHT22;8269;50.990;4.494;2023-12-20T17:59:03;8.30;99.90
16321;DHT22;8269;50.990;4.494;2023-12-20T18:01:29;8.40;99.90
16321;DHT22;8269;50.990;4.494;2023-12-20T18:03:55;8.40;99.90
16321;DHT22;8269;50.990;4.494;2023-12-20T18:06:20;8.40;99.90
16321;DHT22;8269;50.990;4.494;2023-12-20T18:11:12;8.50;99.90
16321;DHT22;8269;50.990;4.494;2023-12-20T18:13:38;8.40;99.90
16321;DHT22;8269;50.990;4.494;2023-12-20T18:16:04;8.40;99.90
16321;DHT22;8269;50.990;4.494;2023-12-20T18:18:34;8.40;99.90
16321;DHT22;8269;50.990;4.494;2023-12-20T18:21:00;8.40;99.90
16321;DHT22;8269;50.990;4.494;2023-12-20T18:23:26;8.30;99.90
16321;DHT22;8269;50.990;4.494;2023-12-20T18:25:52;8.30;99.90
16321;DHT22;8269;50.990;4.494;2023-12-20T18:28:20;8.30;99.90
16321;DHT22;8269;50.990;4.494;2023-12-20T18:30:45;8.30;99.90
16321;DHT22;8269;50.990;4.494;2023-12-20T18:33:12;8.30;99.90
16321;DHT22;8269;50.990;4.494;2023-12-20T18:35:38;8.20;99.90
16321;DHT22;8269;50.990;4.494;2023-12-20T18:38:05;8.30;99.90
16321;DHT22;8269;50.990;4.494;2023-12-20T18:40:31;8.30;99.90
16321;DHT22;8269;50.990;4.494;2023-12-20T18:42:57;8.30;99.90
16321;DHT22;8269;50.990;4.494;2023-12-20T18:45:23;8.30;99.90
16321;DHT22;8269;50.990;4.494;2023-12-20T18:50:18;8.30;99.90
16321;DHT22;8269;50.990;4.494;2023-12-20T18:52:44;8.30;99.90
16321;DHT22;8269;50.990;4.494;2023-12-20T18:55:09;8.40;99.90
16321;DHT22;8269;50.990;4.494;2023-12-20T18:57:35;8.40;99.90
16321;DHT22;8269;50.990;4.494;2023-12-20T19:00:01;8.40;99.90
16321;DHT22;8269;50.990;4.494;2023-12-20T19:02:27;8.30;99.90
16321;DHT22;8269;50.990;4.494;2023-12-20T19:04:56;8.40;99.90
16321;DHT22;8269;50.990;4.494;2023-12-20T19:07:22;8.30;99.90
16321;DHT22;8269;50.990;4.494;2023-12-20T19:09:47;8.30;99.90
16321;DHT22;8269;50.990;4.494;2023-12-20T19:14:40;8.30;99.90
16321;DHT22;8269;50.990;4.494;2023-12-20T19:17:05;8.30;99.90
16321;DHT22;8269;50.990;4.494;2023-12-20T19:19:31;8.20;99.90
16321;DHT22;8269;50.990;4.494;2023-12-20T19:21:56;8.30;99.90
16321;DHT22;8269;50.990;4.494;2023-12-20T19:24:23;8.30;99.90
16321;DHT22;8269;50.990;4.494;2023-12-20T19:26:49;8.30;99.90
16321;DHT22;8269;50.990;4.494;2023-12-20T19:29:15;8.30;99.90
16321;DHT22;8269;50.990;4.494;2023-12-20T19:31:40;8.30;99.90
16321;DHT22;8269;50.990;4.494;2023-12-20T19:34:06;8.40;99.90
16321;DHT22;8269;50.990;4.494;2023-12-20T19:36:32;8.40;99.90
16321;DHT22;8269;50.990;4.494;2023-12-20T19:38:57;8.40;99.90
16321;DHT22;8269;50.990;4.494;2023-12-20T19:41:23;8.40;99.90
16321;DHT22;8269;50.990;4.494;2023-12-20T19:43:49;8.40;99.90
16321;DHT22;8269;50.990;4.494;2023-12-20T19:46:14;8.40;99.90
16321;DHT22;8269;50.990;4.494;2023-12-20T19:48:40;8.50;99.90
16321;DHT22;8269;50.990;4.494;2023-12-20T19:51:06;8.50;99.90
16321;DHT22;8269;50.990;4.494;2023-12-20T19:53:32;8.50;99.90
16321;DHT22;8269;50.990;4.494;2023-12-20T19:55:58;8.50;99.90
16321;DHT22;8269;50.990;4.494;2023-12-20T19:58:23;8.50;99.90
16321;DHT22;8269;50.990;4.494;2023-12-20T20:03:15;8.60;99.90
16321;DHT22;8269;50.990;4.494;2023-12-20T20:08:07;8.60;99.90
16321;DHT22;8269;50.990;4.494;2023-12-20T20:10:32;8.60;99.90
16321;DHT22;8269;50.990;4.494;2023-12-20T20:12:59;8.60;99.90
16321;DHT22;8269;50.990;4.494;2023-12-20T20:15:26;8.60;99.90
16321;DHT22;8269;50.990;4.494;2023-12-20T20:51:57;9.10;99.90
16321;DHT22;8269;50.990;4.494;2023-12-20T20:54:23;9.10;99.90
16321;DHT22;8269;50.990;4.494;2023-12-20T20:56:48;9.00;99.90
16321;DHT22;8269;50.990;4.494;2023-12-20T20:59:14;9.00;99.90
16321;DHT22;8269;50.990;4.494;2023-12-20T21:01:40;9.00;99.90
16321;DHT22;8269;50.990;4.494;2023-12-20T21:04:05;9.00;99.90
16321;DHT22;8269;50.990;4.494;2023-12-20T21:06:31;9.00;99.90
16321;DHT22;8269;50.990;4.494;2023-12-20T21:08:59;9.00;99.90
16321;DHT22;8269;50.990;4.494;2023-12-20T21:11:24;9.10;99.90
16321;DHT22;8269;50.990;4.494;2023-12-20T21:13:50;9.00;99.90
16321;DHT22;8269;50.990;4.494;2023-12-20T21:16:19;9.10;99.90
16321;DHT22;8269;50.990;4.494;2023-12-20T21:18:45;9.10;99.90
16321;DHT22;8269;50.990;4.494;2023-12-20T21:21:11;9.10;99.90
16321;DHT22;8269;50.990;4.494;2023-12-20T21:23:37;9.10;99.90
16321;DHT22;8269;50.990;4.494;2023-12-20T21:26:04;9.10;99.90
16321;DHT22;8269;50.990;4.494;2023-12-20T21:28:34;9.10;99.90
16321;DHT22;8269;50.990;4.494;2023-12-20T21:31:01;9.00;99.90
16321;DHT22;8269;50.990;4.494;2023-12-20T21:33:26;9.00;99.90
16321;DHT22;8269;50.990;4.494;2023-12-20T21:35:52;9.00;99.90
16321;DHT22;8269;50.990;4.494;2023-12-20T21:38:19;9.00;99.90
16321;DHT22;8269;50.990;4.494;2023-12-20T21:40:45;9.00;99.90
16321;DHT22;8269;50.990;4.494;2023-12-20T21:43:11;9.00;99.90
16321;DHT22;8269;50.990;4.494;2023-12-20T21:48:03;9.00;99.90
16321;DHT22;8269;50.990;4.494;2023-12-20T21:57:49;9.10;99.90
16321;DHT22;8269;50.990;4.494;2023-12-20T22:00:15;9.00;99.90
16321;DHT22;8269;50.990;4.494;2023-12-20T22:02:41;9.00;99.90
16321;DHT22;8269;50.990;4.494;2023-12-20T22:07:32;8.90;99.90
16321;DHT22;8269;50.990;4.494;2023-12-20T22:09:58;9.00;99.90
16321;DHT22;8269;50.990;4.494;2023-12-20T22:12:24;9.00;99.90
16321;DHT22;8269;50.990;4.494;2023-12-20T22:17:16;9.10;99.90
16321;DHT22;8269;50.990;4.494;2023-12-20T22:19:42;9.10;99.90
16321;DHT22;8269;50.990;4.494;2023-12-20T22:22:08;9.20;99.90
16321;DHT22;8269;50.990;4.494;2023-12-20T22:26:59;9.20;99.90
16321;DHT22;8269;50.990;4.494;2023-12-20T22:29:27;9.30;99.90
16321;DHT22;8269;50.990;4.494;2023-12-20T22:34:21;9.30;99.90
16321;DHT22;8269;50.990;4.494;2023-12-20T22:36:47;9.40;99.90
16321;DHT22;8269;50.990;4.494;2023-12-20T22:41:39;9.50;99.90
16321;DHT22;8269;50.990;4.494;2023-12-20T22:49:00;9.50;99.90
16321;DHT22;8269;50.990;4.494;2023-12-20T22:51:27;9.50;99.90
16321;DHT22;8269;50.990;4.494;2023-12-20T22:53:54;9.50;99.90
16321;DHT22;8269;50.990;4.494;2023-12-20T22:56:22;9.50;99.90
16321;DHT22;8269;50.990;4.494;2023-12-20T22:58:49;9.50;99.90
16321;DHT22;8269;50.990;4.494;2023-12-20T23:01:16;9.50;99.90
16321;DHT22;8269;50.990;4.494;2023-12-20T23:03:42;9.50;99.90
16321;DHT22;8269;50.990;4.494;2023-12-20T23:06:08;9.50;99.90
16321;DHT22;8269;50.990;4.494;2023-12-20T23:08:33;9.50;99.90
16321;DHT22;8269;50.990;4.494;2023-12-20T23:10:59;9.50;99.90
16321;DHT22;8269;50.990;4.494;2023-12-20T23:25:37;9.50;99.90
16321;DHT22;8269;50.990;4.494;2023-12-20T23:28:04;9.60;99.90
16321;DHT22;8269;50.990;4.494;2023-12-20T23:30:29;9.50;99.90
16321;DHT22;8269;50.990;4.494;2023-12-20T23:35:21;9.70;99.90
16321;DHT22;8269;50.990;4.494;2023-12-20T23:37:47;9.60;99.90
16321;DHT22;8269;50.990;4.494;2023-12-20T23:40:13;9.60;99.90
16321;DHT22;8269;50.990;4.494;2023-12-20T23:42:39;9.60;99.90
16321;DHT22;8269;50.990;4.494;2023-12-20T23:45:06;9.60;99.90
16321;DHT22;8269;50.990;4.494;2023-12-20T23:54:50;9.60;99.90
16321;DHT22;8269;50.990;4.494;2023-12-20T23:57:16;9.50;99.90
16321;DHT22;8269;50.990;4.494;2023-12-20T23:59:41;9.50;99.90
